sensor_id;sensor_type;location;lat;lon;timestamp;P1;durP1;ratioP1;P2;durP2;ratioP2
1601;SDS011;794;48.592;9.634;2024-01-11T00:01:22;41.40;;;22.50;;
1601;SDS011;794;48.592;9.634;2024-01-11T00:03:51;36.93;;;20.80;;
1601;SDS011;794;48.592;9.634;2024-01-11T00:06:20;38.00;;;22.17;;
1601;SDS011;794;48.592;9.634;2024-01-11T00:08:47;38.70;;;22.17;;
1601;SDS011;794;48.592;9.634;2024-01-11T00:11:14;41.07;;;21.87;;
1601;SDS011;794;48.592;9.634;2024-01-11T00:13:41;42.40;;;22.07;;
1601;SDS011;794;48.592;9.634;2024-01-11T00:16:08;36.30;;;19.43;;
1601;SDS011;794;48.592;9.634;2024-01-11T00:18:35;36.97;;;18.87;;
1601;SDS011;794;48.592;9.634;2024-01-11T00:21:04;41.83;;;22.00;;
1601;SDS011;794;48.592;9.634;2024-01-11T00:23:31;36.90;;;20.10;;
1601;SDS011;794;48.592;9.634;2024-01-11T00:25:58;39.63;;;20.47;;
1601;SDS011;794;48.592;9.634;2024-01-11T00:28:25;37.70;;;19.93;;
1601;SDS011;794;48.592;9.634;2024-01-11T00:30:52;42.47;;;19.10;;
1601;SDS011;794;48.592;9.634;2024-01-11T00:33:22;48.33;;;23.23;;
1601;SDS011;794;48.592;9.634;2024-01-11T00:35:49;38.83;;;21.47;;
1601;SDS011;794;48.592;9.634;2024-01-11T00:38:17;41.87;;;22.07;;
1601;SDS011;794;48.592;9.634;2024-01-11T00:40:45;32.97;;;20.80;;
1601;SDS011;794;48.592;9.634;2024-01-11T00:43:12;38.97;;;21.97;;
1601;SDS011;794;48.592;9.634;2024-01-11T00:45:39;39.33;;;21.87;;
1601;SDS011;794;48.592;9.634;2024-01-11T00:48:06;37.50;;;21.80;;
1601;SDS011;794;48.592;9.634;2024-01-11T00:50:33;43.90;;;21.60;;
1601;SDS011;794;48.592;9.634;2024-01-11T00:53:00;41.27;;;21.70;;
1601;SDS011;794;48.592;9.634;2024-01-11T00:55:28;31.17;;;20.90;;
1601;SDS011;794;48.592;9.634;2024-01-11T00:57:55;39.00;;;19.57;;
1601;SDS011;794;48.592;9.634;2024-01-11T01:00:22;40.60;;;21.00;;
1601;SDS011;794;48.592;9.634;2024-01-11T01:02:49;40.30;;;20.60;;
1601;SDS011;794;48.592;9.634;2024-01-11T01:05:19;39.30;;;21.40;;
1601;SDS011;794;48.592;9.634;2024-01-11T01:07:46;39.63;;;22.30;;
1601;SDS011;794;48.592;9.634;2024-01-11T01:10:13;35.87;;;20.17;;
1601;SDS011;794;48.592;9.634;2024-01-11T01:12:41;37.87;;;20.33;;
1601;SDS011;794;48.592;9.634;2024-01-11T01:15:11;42.00;;;23.17;;
1601;SDS011;794;48.592;9.634;2024-01-11T01:17:39;42.43;;;20.50;;
1601;SDS011;794;48.592;9.634;2024-01-11T01:20:06;37.93;;;21.10;;
1601;SDS011;794;48.592;9.634;2024-01-11T01:22:34;49.70;;;22.03;;
1601;SDS011;794;48.592;9.634;2024-01-11T01:25:01;37.93;;;23.73;;
1601;SDS011;794;48.592;9.634;2024-01-11T01:27:29;37.73;;;19.80;;
1601;SDS011;794;48.592;9.634;2024-01-11T01:29:57;35.90;;;19.70;;
1601;SDS011;794;48.592;9.634;2024-01-11T01:32:24;36.80;;;20.93;;
1601;SDS011;794;48.592;9.634;2024-01-11T01:34:51;32.43;;;19.80;;
1601;SDS011;794;48.592;9.634;2024-01-11T01:37:18;38.57;;;20.20;;
1601;SDS011;794;48.592;9.634;2024-01-11T01:39:44;38.03;;;21.40;;
1601;SDS011;794;48.592;9.634;2024-01-11T01:42:14;36.77;;;19.97;;
1601;SDS011;794;48.592;9.634;2024-01-11T01:44:41;34.50;;;19.40;;
1601;SDS011;794;48.592;9.634;2024-01-11T01:47:10;40.00;;;19.83;;
1601;SDS011;794;48.592;9.634;2024-01-11T01:49:37;42.57;;;21.60;;
1601;SDS011;794;48.592;9.634;2024-01-11T01:52:05;33.07;;;21.87;;
1601;SDS011;794;48.592;9.634;2024-01-11T01:54:33;34.20;;;20.67;;
1601;SDS011;794;48.592;9.634;2024-01-11T01:57:01;41.17;;;22.20;;
1601;SDS011;794;48.592;9.634;2024-01-11T01:59:30;34.27;;;20.53;;
1601;SDS011;794;48.592;9.634;2024-01-11T02:01:58;31.30;;;19.80;;
1601;SDS011;794;48.592;9.634;2024-01-11T02:04:26;33.07;;;18.13;;
1601;SDS011;794;48.592;9.634;2024-01-11T02:06:53;34.93;;;18.73;;
1601;SDS011;794;48.592;9.634;2024-01-11T02:09:21;32.37;;;19.10;;
1601;SDS011;794;48.592;9.634;2024-01-11T02:11:50;38.57;;;19.10;;
1601;SDS011;794;48.592;9.634;2024-01-11T02:14:18;36.40;;;19.40;;
1601;SDS011;794;48.592;9.634;2024-01-11T02:16:45;33.20;;;18.87;;
1601;SDS011;794;48.592;9.634;2024-01-11T02:19:13;34.43;;;19.53;;
1601;SDS011;794;48.592;9.634;2024-01-11T02:21:42;37.33;;;22.10;;
1601;SDS011;794;48.592;9.634;2024-01-11T02:24:11;31.03;;;18.10;;
1601;SDS011;794;48.592;9.634;2024-01-11T02:26:44;41.30;;;22.33;;
1601;SDS011;794;48.592;9.634;2024-01-11T02:29:24;32.30;;;18.37;;
1601;SDS011;794;48.592;9.634;2024-01-11T02:31:52;38.23;;;18.67;;
1601;SDS011;794;48.592;9.634;2024-01-11T02:34:19;34.43;;;19.67;;
1601;SDS011;794;48.592;9.634;2024-01-11T02:36:46;37.80;;;20.50;;
1601;SDS011;794;48.592;9.634;2024-01-11T02:39:16;37.67;;;18.27;;
1601;SDS011;794;48.592;9.634;2024-01-11T02:41:45;34.87;;;18.10;;
1601;SDS011;794;48.592;9.634;2024-01-11T02:44:12;37.93;;;18.10;;
1601;SDS011;794;48.592;9.634;2024-01-11T02:46:42;35.13;;;18.87;;
1601;SDS011;794;48.592;9.634;2024-01-11T02:49:09;38.23;;;18.70;;
1601;SDS011;794;48.592;9.634;2024-01-11T02:51:36;34.47;;;19.40;;
1601;SDS011;794;48.592;9.634;2024-01-11T02:54:03;29.93;;;18.43;;
1601;SDS011;794;48.592;9.634;2024-01-11T02:56:31;31.53;;;17.30;;
1601;SDS011;794;48.592;9.634;2024-01-11T02:58:58;35.30;;;19.17;;
1601;SDS011;794;48.592;9.634;2024-01-11T03:01:28;29.67;;;19.30;;
1601;SDS011;794;48.592;9.634;2024-01-11T03:03:56;27.67;;;16.23;;
1601;SDS011;794;48.592;9.634;2024-01-11T03:06:24;32.67;;;18.47;;
1601;SDS011;794;48.592;9.634;2024-01-11T03:08:51;44.67;;;20.53;;
1601;SDS011;794;48.592;9.634;2024-01-11T03:11:17;31.00;;;17.17;;
1601;SDS011;794;48.592;9.634;2024-01-11T03:13:46;35.23;;;18.07;;
1601;SDS011;794;48.592;9.634;2024-01-11T03:16:13;41.23;;;19.23;;
1601;SDS011;794;48.592;9.634;2024-01-11T03:18:40;32.80;;;18.30;;
1601;SDS011;794;48.592;9.634;2024-01-11T03:21:06;29.07;;;17.77;;
1601;SDS011;794;48.592;9.634;2024-01-11T03:23:33;34.70;;;18.57;;
1601;SDS011;794;48.592;9.634;2024-01-11T03:26:00;37.77;;;18.90;;
1601;SDS011;794;48.592;9.634;2024-01-11T03:28:30;35.00;;;19.97;;
1601;SDS011;794;48.592;9.634;2024-01-11T03:30:59;34.23;;;18.60;;
1601;SDS011;794;48.592;9.634;2024-01-11T03:33:26;41.97;;;21.00;;
1601;SDS011;794;48.592;9.634;2024-01-11T03:35:53;33.07;;;18.73;;
1601;SDS011;794;48.592;9.634;2024-01-11T03:38:19;35.60;;;21.00;;
1601;SDS011;794;48.592;9.634;2024-01-11T03:40:46;31.00;;;18.80;;
1601;SDS011;794;48.592;9.634;2024-01-11T03:43:16;34.97;;;20.10;;
1601;SDS011;794;48.592;9.634;2024-01-11T03:45:43;31.40;;;18.27;;
1601;SDS011;794;48.592;9.634;2024-01-11T03:48:12;32.23;;;19.50;;
1601;SDS011;794;48.592;9.634;2024-01-11T03:50:39;37.20;;;19.73;;
1601;SDS011;794;48.592;9.634;2024-01-11T03:53:06;39.87;;;20.20;;
1601;SDS011;794;48.592;9.634;2024-01-11T03:55:33;35.03;;;19.57;;
1601;SDS011;794;48.592;9.634;2024-01-11T03:58:00;35.10;;;19.57;;
1601;SDS011;794;48.592;9.634;2024-01-11T04:00:27;39.17;;;21.97;;
1601;SDS011;794;48.592;9.634;2024-01-11T04:02:53;33.73;;;18.90;;
1601;SDS011;794;48.592;9.634;2024-01-11T04:05:22;33.87;;;20.17;;
1601;SDS011;794;48.592;9.634;2024-01-11T04:07:49;38.90;;;20.37;;
1601;SDS011;794;48.592;9.634;2024-01-11T04:10:17;36.67;;;20.67;;
1601;SDS011;794;48.592;9.634;2024-01-11T04:12:44;34.43;;;19.87;;
1601;SDS011;794;48.592;9.634;2024-01-11T04:15:11;33.37;;;19.37;;
1601;SDS011;794;48.592;9.634;2024-01-11T04:17:38;36.50;;;19.23;;
1601;SDS011;794;48.592;9.634;2024-01-11T04:20:06;34.57;;;18.83;;
1601;SDS011;794;48.592;9.634;2024-01-11T04:22:38;33.77;;;19.60;;
1601;SDS011;794;48.592;9.634;2024-01-11T04:25:06;42.60;;;23.33;;
1601;SDS011;794;48.592;9.634;2024-01-11T04:27:34;39.73;;;19.80;;
1601;SDS011;794;48.592;9.634;2024-01-11T04:30:01;41.07;;;22.13;;
1601;SDS011;794;48.592;9.634;2024-01-11T04:32:27;34.67;;;19.87;;
1601;SDS011;794;48.592;9.634;2024-01-11T04:34:55;32.77;;;19.17;;
1601;SDS011;794;48.592;9.634;2024-01-11T04:37:22;39.77;;;22.30;;
1601;SDS011;794;48.592;9.634;2024-01-11T04:39:50;42.67;;;20.70;;
1601;SDS011;794;48.592;9.634;2024-01-11T04:42:17;38.53;;;19.53;;
1601;SDS011;794;48.592;9.634;2024-01-11T04:44:44;35.30;;;19.70;;
1601;SDS011;794;48.592;9.634;2024-01-11T04:47:11;30.37;;;18.80;;
1601;SDS011;794;48.592;9.634;2024-01-11T04:49:41;38.87;;;21.63;;
1601;SDS011;794;48.592;9.634;2024-01-11T04:52:08;33.13;;;17.57;;
1601;SDS011;794;48.592;9.634;2024-01-11T04:54:35;36.77;;;20.40;;
1601;SDS011;794;48.592;9.634;2024-01-11T04:57:04;34.23;;;19.80;;
1601;SDS011;794;48.592;9.634;2024-01-11T04:59:31;31.13;;;19.87;;
1601;SDS011;794;48.592;9.634;2024-01-11T05:01:58;48.93;;;27.40;;
1601;SDS011;794;48.592;9.634;2024-01-11T05:04:25;44.57;;;24.00;;
1601;SDS011;794;48.592;9.634;2024-01-11T05:06:52;39.50;;;22.57;;
1601;SDS011;794;48.592;9.634;2024-01-11T05:09:19;39.27;;;23.60;;
1601;SDS011;794;48.592;9.634;2024-01-11T05:11:46;30.83;;;21.30;;
1601;SDS011;794;48.592;9.634;2024-01-11T05:14:14;46.30;;;25.30;;
1601;SDS011;794;48.592;9.634;2024-01-11T05:16:44;31.87;;;20.23;;
1601;SDS011;794;48.592;9.634;2024-01-11T05:19:11;30.13;;;18.90;;
1601;SDS011;794;48.592;9.634;2024-01-11T05:21:38;39.80;;;21.17;;
1601;SDS011;794;48.592;9.634;2024-01-11T05:24:05;39.87;;;23.60;;
1601;SDS011;794;48.592;9.634;2024-01-11T05:26:32;40.43;;;24.50;;
1601;SDS011;794;48.592;9.634;2024-01-11T05:28:59;38.30;;;24.00;;
1601;SDS011;794;48.592;9.634;2024-01-11T05:31:30;35.23;;;22.60;;
1601;SDS011;794;48.592;9.634;2024-01-11T05:33:57;39.90;;;23.97;;
1601;SDS011;794;48.592;9.634;2024-01-11T05:36:24;39.57;;;22.10;;
1601;SDS011;794;48.592;9.634;2024-01-11T05:38:51;38.43;;;23.57;;
1601;SDS011;794;48.592;9.634;2024-01-11T05:41:18;42.47;;;24.83;;
1601;SDS011;794;48.592;9.634;2024-01-11T05:43:48;47.03;;;25.90;;
1601;SDS011;794;48.592;9.634;2024-01-11T05:46:15;37.13;;;21.77;;
1601;SDS011;794;48.592;9.634;2024-01-11T05:48:43;39.30;;;22.17;;
1601;SDS011;794;48.592;9.634;2024-01-11T05:51:10;36.10;;;22.40;;
1601;SDS011;794;48.592;9.634;2024-01-11T05:53:37;37.73;;;22.37;;
1601;SDS011;794;48.592;9.634;2024-01-11T05:56:07;39.83;;;22.87;;
1601;SDS011;794;48.592;9.634;2024-01-11T05:58:34;31.40;;;21.17;;
1601;SDS011;794;48.592;9.634;2024-01-11T06:01:03;41.80;;;22.60;;
1601;SDS011;794;48.592;9.634;2024-01-11T06:03:30;48.17;;;25.67;;
1601;SDS011;794;48.592;9.634;2024-01-11T06:06:00;41.50;;;23.23;;
1601;SDS011;794;48.592;9.634;2024-01-11T06:08:29;40.20;;;22.37;;
1601;SDS011;794;48.592;9.634;2024-01-11T06:10:59;42.03;;;22.80;;
1601;SDS011;794;48.592;9.634;2024-01-11T06:13:26;34.53;;;21.90;;
1601;SDS011;794;48.592;9.634;2024-01-11T06:15:53;38.00;;;22.00;;
1601;SDS011;794;48.592;9.634;2024-01-11T06:18:20;49.07;;;24.40;;
1601;SDS011;794;48.592;9.634;2024-01-11T06:20:47;36.63;;;22.90;;
1601;SDS011;794;48.592;9.634;2024-01-11T06:23:15;43.97;;;24.07;;
1601;SDS011;794;48.592;9.634;2024-01-11T06:25:44;39.00;;;22.80;;
1601;SDS011;794;48.592;9.634;2024-01-11T06:28:12;39.10;;;21.63;;
1601;SDS011;794;48.592;9.634;2024-01-11T06:30:39;38.77;;;23.40;;
1601;SDS011;794;48.592;9.634;2024-01-11T06:33:06;39.93;;;24.00;;
1601;SDS011;794;48.592;9.634;2024-01-11T06:35:33;43.13;;;24.50;;
1601;SDS011;794;48.592;9.634;2024-01-11T06:38:03;38.47;;;23.23;;
1601;SDS011;794;48.592;9.634;2024-01-11T06:40:31;53.07;;;26.63;;
1601;SDS011;794;48.592;9.634;2024-01-11T06:42:58;39.83;;;22.80;;
1601;SDS011;794;48.592;9.634;2024-01-11T06:45:25;48.20;;;24.60;;
1601;SDS011;794;48.592;9.634;2024-01-11T06:47:52;44.57;;;24.17;;
1601;SDS011;794;48.592;9.634;2024-01-11T06:50:19;37.07;;;23.47;;
1601;SDS011;794;48.592;9.634;2024-01-11T06:52:49;46.03;;;25.67;;
1601;SDS011;794;48.592;9.634;2024-01-11T06:55:16;38.00;;;22.90;;
1601;SDS011;794;48.592;9.634;2024-01-11T06:57:47;47.80;;;24.10;;
1601;SDS011;794;48.592;9.634;2024-01-11T07:00:14;44.17;;;22.33;;
1601;SDS011;794;48.592;9.634;2024-01-11T07:02:41;42.07;;;22.77;;
1601;SDS011;794;48.592;9.634;2024-01-11T07:05:08;37.53;;;22.27;;
1601;SDS011;794;48.592;9.634;2024-01-11T07:07:35;34.90;;;23.43;;
1601;SDS011;794;48.592;9.634;2024-01-11T07:10:02;45.03;;;24.27;;
1601;SDS011;794;48.592;9.634;2024-01-11T07:12:30;50.37;;;28.73;;
1601;SDS011;794;48.592;9.634;2024-01-11T07:14:59;46.17;;;25.03;;
1601;SDS011;794;48.592;9.634;2024-01-11T07:17:26;41.33;;;23.87;;
1601;SDS011;794;48.592;9.634;2024-01-11T07:19:53;37.40;;;22.50;;
1601;SDS011;794;48.592;9.634;2024-01-11T07:22:20;43.90;;;24.20;;
1601;SDS011;794;48.592;9.634;2024-01-11T07:24:47;41.80;;;26.90;;
1601;SDS011;794;48.592;9.634;2024-01-11T07:27:14;39.20;;;25.17;;
1601;SDS011;794;48.592;9.634;2024-01-11T07:29:41;44.60;;;25.17;;
1601;SDS011;794;48.592;9.634;2024-01-11T07:32:13;43.13;;;24.07;;
1601;SDS011;794;48.592;9.634;2024-01-11T07:34:40;46.60;;;25.60;;
1601;SDS011;794;48.592;9.634;2024-01-11T07:37:07;43.63;;;24.17;;
1601;SDS011;794;48.592;9.634;2024-01-11T07:39:34;52.23;;;27.20;;
1601;SDS011;794;48.592;9.634;2024-01-11T07:42:01;42.27;;;26.50;;
1601;SDS011;794;48.592;9.634;2024-01-11T07:44:29;51.57;;;24.80;;
1601;SDS011;794;48.592;9.634;2024-01-11T07:46:56;49.33;;;27.10;;
1601;SDS011;794;48.592;9.634;2024-01-11T07:49:24;43.87;;;23.30;;
1601;SDS011;794;48.592;9.634;2024-01-11T07:51:51;43.03;;;25.10;;
1601;SDS011;794;48.592;9.634;2024-01-11T07:54:19;44.03;;;24.73;;
1601;SDS011;794;48.592;9.634;2024-01-11T07:56:46;47.53;;;26.03;;
1601;SDS011;794;48.592;9.634;2024-01-11T07:59:13;52.57;;;26.90;;
1601;SDS011;794;48.592;9.634;2024-01-11T08:01:40;44.20;;;26.43;;
1601;SDS011;794;48.592;9.634;2024-01-11T08:04:07;43.93;;;24.87;;
1601;SDS011;794;48.592;9.634;2024-01-11T08:06:35;43.93;;;24.53;;
1601;SDS011;794;48.592;9.634;2024-01-11T08:09:02;45.93;;;24.53;;
1601;SDS011;794;48.592;9.634;2024-01-11T08:11:30;44.43;;;26.20;;
1601;SDS011;794;48.592;9.634;2024-01-11T08:13:58;46.27;;;24.10;;
1601;SDS011;794;48.592;9.634;2024-01-11T08:16:25;42.27;;;24.00;;
1601;SDS011;794;48.592;9.634;2024-01-11T08:18:51;48.23;;;26.67;;
1601;SDS011;794;48.592;9.634;2024-01-11T08:21:19;41.90;;;25.77;;
1601;SDS011;794;48.592;9.634;2024-01-11T08:23:47;55.33;;;29.43;;
1601;SDS011;794;48.592;9.634;2024-01-11T08:26:14;44.17;;;25.97;;
1601;SDS011;794;48.592;9.634;2024-01-11T08:28:43;49.97;;;28.13;;
1601;SDS011;794;48.592;9.634;2024-01-11T08:31:11;57.33;;;29.77;;
1601;SDS011;794;48.592;9.634;2024-01-11T08:33:38;44.37;;;28.83;;
1601;SDS011;794;48.592;9.634;2024-01-11T08:36:05;40.43;;;27.63;;
1601;SDS011;794;48.592;9.634;2024-01-11T08:38:32;62.57;;;33.70;;
1601;SDS011;794;48.592;9.634;2024-01-11T08:41:04;52.47;;;31.30;;
1601;SDS011;794;48.592;9.634;2024-01-11T08:43:32;61.83;;;35.17;;
1601;SDS011;794;48.592;9.634;2024-01-11T08:45:59;73.70;;;46.40;;
1601;SDS011;794;48.592;9.634;2024-01-11T08:48:27;67.90;;;38.80;;
1601;SDS011;794;48.592;9.634;2024-01-11T08:50:54;54.00;;;31.77;;
1601;SDS011;794;48.592;9.634;2024-01-11T08:53:24;59.67;;;30.07;;
1601;SDS011;794;48.592;9.634;2024-01-11T08:55:51;67.77;;;35.70;;
1601;SDS011;794;48.592;9.634;2024-01-11T08:58:20;50.30;;;32.87;;
1601;SDS011;794;48.592;9.634;2024-01-11T09:00:47;52.17;;;32.83;;
1601;SDS011;794;48.592;9.634;2024-01-11T09:03:14;61.60;;;35.53;;
1601;SDS011;794;48.592;9.634;2024-01-11T09:05:42;55.10;;;33.17;;
1601;SDS011;794;48.592;9.634;2024-01-11T09:08:09;65.33;;;34.80;;
1601;SDS011;794;48.592;9.634;2024-01-11T09:10:35;63.80;;;35.53;;
1601;SDS011;794;48.592;9.634;2024-01-11T09:13:03;60.73;;;34.40;;
1601;SDS011;794;48.592;9.634;2024-01-11T09:15:31;49.30;;;29.80;;
1601;SDS011;794;48.592;9.634;2024-01-11T09:17:59;68.10;;;37.30;;
1601;SDS011;794;48.592;9.634;2024-01-11T09:20:26;68.53;;;39.07;;
1601;SDS011;794;48.592;9.634;2024-01-11T09:22:53;71.33;;;37.10;;
1601;SDS011;794;48.592;9.634;2024-01-11T09:25:20;66.80;;;35.67;;
1601;SDS011;794;48.592;9.634;2024-01-11T09:27:49;60.60;;;35.33;;
1601;SDS011;794;48.592;9.634;2024-01-11T09:30:16;81.67;;;47.13;;
1601;SDS011;794;48.592;9.634;2024-01-11T09:32:44;54.20;;;30.77;;
1601;SDS011;794;48.592;9.634;2024-01-11T09:35:11;61.43;;;32.70;;
1601;SDS011;794;48.592;9.634;2024-01-11T09:37:38;45.27;;;31.33;;
1601;SDS011;794;48.592;9.634;2024-01-11T09:40:06;52.97;;;31.73;;
1601;SDS011;794;48.592;9.634;2024-01-11T09:42:35;56.53;;;31.70;;
1601;SDS011;794;48.592;9.634;2024-01-11T09:45:04;44.07;;;26.67;;
1601;SDS011;794;48.592;9.634;2024-01-11T09:47:35;40.53;;;28.30;;
1601;SDS011;794;48.592;9.634;2024-01-11T09:50:05;41.30;;;28.33;;
1601;SDS011;794;48.592;9.634;2024-01-11T09:52:33;35.43;;;24.70;;
1601;SDS011;794;48.592;9.634;2024-01-11T09:55:00;34.70;;;24.73;;
1601;SDS011;794;48.592;9.634;2024-01-11T09:57:28;38.83;;;24.03;;
1601;SDS011;794;48.592;9.634;2024-01-11T09:59:57;39.40;;;26.70;;
1601;SDS011;794;48.592;9.634;2024-01-11T10:02:25;42.00;;;26.63;;
1601;SDS011;794;48.592;9.634;2024-01-11T10:04:52;40.73;;;24.90;;
1601;SDS011;794;48.592;9.634;2024-01-11T10:07:21;36.70;;;25.50;;
1601;SDS011;794;48.592;9.634;2024-01-11T10:09:49;41.50;;;26.70;;
1601;SDS011;794;48.592;9.634;2024-01-11T10:12:17;39.17;;;25.00;;
1601;SDS011;794;48.592;9.634;2024-01-11T10:14:48;38.43;;;24.37;;
1601;SDS011;794;48.592;9.634;2024-01-11T10:17:15;32.30;;;23.40;;
1601;SDS011;794;48.592;9.634;2024-01-11T10:19:42;31.90;;;22.57;;
1601;SDS011;794;48.592;9.634;2024-01-11T10:22:09;35.50;;;23.50;;
1601;SDS011;794;48.592;9.634;2024-01-11T10:24:39;42.87;;;25.63;;
1601;SDS011;794;48.592;9.634;2024-01-11T10:27:08;35.10;;;22.87;;
1601;SDS011;794;48.592;9.634;2024-01-11T10:29:35;28.20;;;22.10;;
1601;SDS011;794;48.592;9.634;2024-01-11T10:32:04;36.67;;;23.37;;
1601;SDS011;794;48.592;9.634;2024-01-11T10:34:31;40.93;;;23.53;;
1601;SDS011;794;48.592;9.634;2024-01-11T10:36:58;28.97;;;21.87;;
1601;SDS011;794;48.592;9.634;2024-01-11T10:39:26;35.47;;;21.60;;
1601;SDS011;794;48.592;9.634;2024-01-11T10:42:00;33.03;;;22.07;;
1601;SDS011;794;48.592;9.634;2024-01-11T10:44:32;29.37;;;21.33;;
1601;SDS011;794;48.592;9.634;2024-01-11T10:47:01;28.63;;;19.47;;
1601;SDS011;794;48.592;9.634;2024-01-11T10:49:30;34.57;;;22.13;;
1601;SDS011;794;48.592;9.634;2024-01-11T10:52:03;31.30;;;21.80;;
1601;SDS011;794;48.592;9.634;2024-01-11T10:54:31;37.60;;;22.50;;
1601;SDS011;794;48.592;9.634;2024-01-11T10:57:02;28.87;;;21.37;;
1601;SDS011;794;48.592;9.634;2024-01-11T10:59:31;32.97;;;22.37;;
1601;SDS011;794;48.592;9.634;2024-01-11T11:01:58;33.27;;;21.83;;
1601;SDS011;794;48.592;9.634;2024-01-11T11:04:31;31.87;;;23.80;;
1601;SDS011;794;48.592;9.634;2024-01-11T11:07:00;45.90;;;24.60;;
1601;SDS011;794;48.592;9.634;2024-01-11T11:09:28;36.17;;;22.80;;
1601;SDS011;794;48.592;9.634;2024-01-11T11:11:59;31.13;;;20.03;;
1601;SDS011;794;48.592;9.634;2024-01-11T11:14:30;29.83;;;20.30;;
1601;SDS011;794;48.592;9.634;2024-01-11T11:17:00;30.10;;;21.73;;
1601;SDS011;794;48.592;9.634;2024-01-11T11:19:27;30.03;;;20.53;;
1601;SDS011;794;48.592;9.634;2024-01-11T11:21:54;28.90;;;21.13;;
1601;SDS011;794;48.592;9.634;2024-01-11T11:24:21;30.77;;;21.63;;
1601;SDS011;794;48.592;9.634;2024-01-11T11:26:48;30.67;;;21.47;;
1601;SDS011;794;48.592;9.634;2024-01-11T11:29:15;30.33;;;20.43;;
1601;SDS011;794;48.592;9.634;2024-01-11T11:31:54;31.67;;;22.30;;
1601;SDS011;794;48.592;9.634;2024-01-11T11:34:40;29.80;;;20.40;;
1601;SDS011;794;48.592;9.634;2024-01-11T11:37:09;31.90;;;20.43;;
1601;SDS011;794;48.592;9.634;2024-01-11T11:39:36;26.27;;;18.40;;
1601;SDS011;794;48.592;9.634;2024-01-11T11:42:10;30.40;;;20.30;;
1601;SDS011;794;48.592;9.634;2024-01-11T11:44:47;27.33;;;19.27;;
1601;SDS011;794;48.592;9.634;2024-01-11T11:47:22;29.00;;;20.50;;
1601;SDS011;794;48.592;9.634;2024-01-11T11:49:56;34.27;;;21.03;;
1601;SDS011;794;48.592;9.634;2024-01-11T11:52:25;29.73;;;19.80;;
1601;SDS011;794;48.592;9.634;2024-01-11T11:54:54;26.07;;;16.77;;
1601;SDS011;794;48.592;9.634;2024-01-11T11:57:23;27.23;;;20.00;;
1601;SDS011;794;48.592;9.634;2024-01-11T11:59:50;31.50;;;19.87;;
1601;SDS011;794;48.592;9.634;2024-01-11T12:02:18;26.20;;;17.97;;
1601;SDS011;794;48.592;9.634;2024-01-11T12:04:47;25.37;;;19.20;;
1601;SDS011;794;48.592;9.634;2024-01-11T12:07:17;30.63;;;21.03;;
1601;SDS011;794;48.592;9.634;2024-01-11T12:09:45;28.67;;;18.80;;
1601;SDS011;794;48.592;9.634;2024-01-11T12:12:13;26.00;;;19.37;;
1601;SDS011;794;48.592;9.634;2024-01-11T12:14:41;27.90;;;18.67;;
1601;SDS011;794;48.592;9.634;2024-01-11T12:17:08;30.07;;;20.70;;
1601;SDS011;794;48.592;9.634;2024-01-11T12:19:35;27.97;;;19.63;;
1601;SDS011;794;48.592;9.634;2024-01-11T12:22:04;33.90;;;19.53;;
1601;SDS011;794;48.592;9.634;2024-01-11T12:24:31;29.07;;;19.27;;
1601;SDS011;794;48.592;9.634;2024-01-11T12:27:00;31.07;;;19.30;;
1601;SDS011;794;48.592;9.634;2024-01-11T12:29:28;30.40;;;20.17;;
1601;SDS011;794;48.592;9.634;2024-01-11T12:31:57;29.90;;;19.30;;
1601;SDS011;794;48.592;9.634;2024-01-11T12:34:26;27.73;;;19.77;;
1601;SDS011;794;48.592;9.634;2024-01-11T12:36:54;27.33;;;21.20;;
1601;SDS011;794;48.592;9.634;2024-01-11T12:39:27;28.63;;;18.80;;
1601;SDS011;794;48.592;9.634;2024-01-11T12:41:55;27.70;;;17.50;;
1601;SDS011;794;48.592;9.634;2024-01-11T12:44:23;26.93;;;18.13;;
1601;SDS011;794;48.592;9.634;2024-01-11T12:46:50;26.63;;;19.40;;
1601;SDS011;794;48.592;9.634;2024-01-11T12:49:18;25.23;;;16.43;;
1601;SDS011;794;48.592;9.634;2024-01-11T12:51:46;27.87;;;17.70;;
1601;SDS011;794;48.592;9.634;2024-01-11T12:54:15;29.50;;;18.90;;
1601;SDS011;794;48.592;9.634;2024-01-11T12:56:46;28.00;;;18.53;;
1601;SDS011;794;48.592;9.634;2024-01-11T12:59:13;32.93;;;18.57;;
1601;SDS011;794;48.592;9.634;2024-01-11T13:01:41;32.03;;;20.17;;
1601;SDS011;794;48.592;9.634;2024-01-11T13:04:09;45.50;;;26.30;;
1601;SDS011;794;48.592;9.634;2024-01-11T13:06:36;40.00;;;26.37;;
1601;SDS011;794;48.592;9.634;2024-01-11T13:09:05;49.43;;;31.80;;
1601;SDS011;794;48.592;9.634;2024-01-11T13:11:39;49.37;;;32.23;;
1601;SDS011;794;48.592;9.634;2024-01-11T13:14:08;43.43;;;32.10;;
1601;SDS011;794;48.592;9.634;2024-01-11T13:16:40;56.50;;;34.33;;
1601;SDS011;794;48.592;9.634;2024-01-11T13:19:07;42.33;;;30.10;;
1601;SDS011;794;48.592;9.634;2024-01-11T13:21:36;46.07;;;30.20;;
1601;SDS011;794;48.592;9.634;2024-01-11T13:26:58;48.97;;;32.97;;
1601;SDS011;794;48.592;9.634;2024-01-11T13:29:28;43.03;;;28.03;;
1601;SDS011;794;48.592;9.634;2024-01-11T13:31:55;51.37;;;33.47;;
1601;SDS011;794;48.592;9.634;2024-01-11T13:34:21;56.40;;;33.27;;
1601;SDS011;794;48.592;9.634;2024-01-11T13:36:49;48.17;;;32.57;;
1601;SDS011;794;48.592;9.634;2024-01-11T13:39:16;52.30;;;31.13;;
1601;SDS011;794;48.592;9.634;2024-01-11T13:41:45;49.87;;;31.13;;
1601;SDS011;794;48.592;9.634;2024-01-11T13:44:12;40.70;;;30.17;;
1601;SDS011;794;48.592;9.634;2024-01-11T13:46:40;50.27;;;32.57;;
1601;SDS011;794;48.592;9.634;2024-01-11T13:49:08;51.93;;;31.97;;
1601;SDS011;794;48.592;9.634;2024-01-11T13:51:36;52.63;;;32.00;;
1601;SDS011;794;48.592;9.634;2024-01-11T13:54:04;56.57;;;33.33;;
1601;SDS011;794;48.592;9.634;2024-01-11T13:56:31;52.30;;;35.03;;
1601;SDS011;794;48.592;9.634;2024-01-11T13:58:58;56.27;;;37.50;;
1601;SDS011;794;48.592;9.634;2024-01-11T14:04:42;43.87;;;31.60;;
1601;SDS011;794;48.592;9.634;2024-01-11T14:07:09;42.03;;;29.40;;
1601;SDS011;794;48.592;9.634;2024-01-11T14:09:36;48.67;;;31.77;;
1601;SDS011;794;48.592;9.634;2024-01-11T14:12:03;40.27;;;29.80;;
1601;SDS011;794;48.592;9.634;2024-01-11T14:14:31;45.07;;;31.03;;
1601;SDS011;794;48.592;9.634;2024-01-11T14:16:58;47.97;;;29.53;;
1601;SDS011;794;48.592;9.634;2024-01-11T14:19:24;45.93;;;30.30;;
1601;SDS011;794;48.592;9.634;2024-01-11T14:21:54;51.93;;;31.27;;
1601;SDS011;794;48.592;9.634;2024-01-11T14:24:22;37.23;;;28.20;;
1601;SDS011;794;48.592;9.634;2024-01-11T14:26:50;44.57;;;30.07;;
1601;SDS011;794;48.592;9.634;2024-01-11T14:29:17;45.13;;;30.73;;
1601;SDS011;794;48.592;9.634;2024-01-11T14:31:44;45.63;;;27.67;;
1601;SDS011;794;48.592;9.634;2024-01-11T14:34:11;42.93;;;28.23;;
1601;SDS011;794;48.592;9.634;2024-01-11T14:36:39;38.53;;;30.10;;
1601;SDS011;794;48.592;9.634;2024-01-11T14:39:07;50.77;;;28.30;;
1601;SDS011;794;48.592;9.634;2024-01-11T14:41:35;46.20;;;31.30;;
1601;SDS011;794;48.592;9.634;2024-01-11T14:44:02;41.37;;;29.40;;
1601;SDS011;794;48.592;9.634;2024-01-11T14:46:29;50.37;;;31.43;;
1601;SDS011;794;48.592;9.634;2024-01-11T14:48:56;49.93;;;30.30;;
1601;SDS011;794;48.592;9.634;2024-01-11T14:51:25;50.90;;;29.53;;
1601;SDS011;794;48.592;9.634;2024-01-11T14:53:54;54.60;;;31.40;;
1601;SDS011;794;48.592;9.634;2024-01-11T14:56:23;51.10;;;32.83;;
1601;SDS011;794;48.592;9.634;2024-01-11T14:58:49;50.83;;;33.83;;
1601;SDS011;794;48.592;9.634;2024-01-11T15:01:16;62.93;;;37.20;;
1601;SDS011;794;48.592;9.634;2024-01-11T15:03:44;60.23;;;35.37;;
1601;SDS011;794;48.592;9.634;2024-01-11T15:06:11;48.97;;;34.40;;
1601;SDS011;794;48.592;9.634;2024-01-11T15:08:38;56.50;;;33.33;;
1601;SDS011;794;48.592;9.634;2024-01-11T15:11:05;59.13;;;33.97;;